Auburn, Michigan
Current Conditions -  °F | °C
As of 8:53 AM on Friday 19 Dec 2014 (Local Time) from KMBS Reporting Station
Clear Clear  
Wind Chill: 13°   Ceiling: Unl
Heat Index: 22°   Visibility: 10mi
Dew Point: 17°   Wind: 7mph
Humidity: 82%   Direction: 330°NNW
Pressure: 30.29"   Gusts: NA
Location:  43.6°N, 84.07°W
Report Text: KMBS 191353Z 33006KT 10SM CLR M06/M08 A3029 RMK AO2 SLP269 T10561083
Loading
Personal Weather Stations






























Interactive Weather Map New forecast layout! Learn more

10-Day Weather Forecast

Advertisements
Track Severe Weather on mobile